Phuket International Airport
VTSP : now visible

Airfield :











YOU CAN JOIN US ON...

 
LOGIN :

Register | Disclaimer

   EN    FR    IT 

 









Legend :    VFR   Marginal VFR   IFR   Intensive IFR   Very Intensive IFR
Visi :
Ceiling :
>= 8 km
>= 3000ft
5 to 8 km
1000 to 3000 ft
1500m to 5 km
500 to 1000 ft
800 to 1500m
200 to 500 ft
< 800m
< 200 ft
Symbols :   Thunderstorms  Fog  Heavy snow  Heavy precipitations  Wind > 20 kt






- Airport Elevation : 82 ft
- IATA code : HKT


VTSP - Phuket International

CURRENT METAR :
  • 142100Z VRB02KT 9000 FEW020 25/21 Q1010 NOSIG

EXPIRED METARs :
  • 142030Z VRB02KT 9000 FEW020 25/21 Q1010 NOSIG
  • 142000Z 07003KT 330V140 9000 FEW020 25/21 Q1010 NOSIG
  • 141930Z VRB02KT 9000 FEW020 25/21 Q1011 NOSIG
  • 141900Z VRB02KT 9000 FEW020 25/21 Q1011 NOSIG
  • 141830Z 06003KT 360V140 9000 FEW020 26/21 Q1012 NOSIG

TAF TAF VTSP
Valid from the 14 at 18:00 until the 16 at 00:00 UTC


141700Z 1418/1524 00000KT 9999 FEW020
BECMG 1500/1502 08008KT
BECMG 1508/1510 30006KT
BECMG 1514/1516 00000KT



MET'MAP, your aeronautical weather chart ! - Copyright ORBIFLY December 2007 - Disclaimer

ORBIFLY MET'MAP TEAM :

Programming & Development : Alexandra Zaïnal
Concept & original design : Baudouin d'Aumeries
Assistance for programming : Marc-Olivier Méhu
Technical & hardware support : Manuel Goepfert

Contact : metmap@orbifly.com




SOURCES & CREDITS :

   NOAA       Earth
Advisory